地図

経路データ

SID SEASON NUMBER BASIN SUBBASIN NAME ISO_TIME NATURE LAT LON WMO_WIND WMO_PRES WMO_AGENCY TRACK_TYPE DIST2LAND LANDFALL IFLAG USA_AGENCY USA_ATCF_ID USA_LAT USA_LON USA_RECORD USA_STATUS USA_WIND USA_PRES USA_SSHS USA_R34_NE USA_R34_SE USA_R34_SW USA_R34_NW USA_R50_NE USA_R50_SE USA_R50_SW USA_R50_NW USA_R64_NE USA_R64_SE USA_R64_SW USA_R64_NW USA_POCI USA_ROCI USA_RMW USA_EYE TOKYO_LAT TOKYO_LON TOKYO_GRADE TOKYO_WIND TOKYO_PRES TOKYO_R50_DIR TOKYO_R50_LONG TOKYO_R50_SHORT TOKYO_R30_DIR TOKYO_R30_LONG TOKYO_R30_SHORT TOKYO_LAND CMA_LAT CMA_LON CMA_CAT CMA_WIND CMA_PRES HKO_LAT HKO_LON HKO_CAT HKO_WIND HKO_PRES NEWDELHI_LAT NEWDELHI_LON NEWDELHI_GRADE NEWDELHI_WIND NEWDELHI_PRES NEWDELHI_CI NEWDELHI_DP NEWDELHI_POCI REUNION_LAT REUNION_LON REUNION_TYPE REUNION_WIND REUNION_PRES REUNION_TNUM REUNION_CI REUNION_RMW REUNION_R34_NE REUNION_R34_SE REUNION_R34_SW REUNION_R34_NW REUNION_R50_NE REUNION_R50_SE REUNION_R50_SW REUNION_R50_NW REUNION_R64_NE REUNION_R64_SE REUNION_R64_SW REUNION_R64_NW BOM_LAT BOM_LON BOM_TYPE BOM_WIND BOM_PRES BOM_TNUM BOM_CI BOM_RMW BOM_R34_NE BOM_R34_SE BOM_R34_SW BOM_R34_NW BOM_R50_NE BOM_R50_SE BOM_R50_SW BOM_R50_NW BOM_R64_NE BOM_R64_SE BOM_R64_SW BOM_R64_NW BOM_ROCI BOM_POCI BOM_EYE BOM_POS_METHOD BOM_PRES_METHOD NADI_LAT NADI_LON NADI_CAT NADI_WIND NADI_PRES WELLINGTON_LAT WELLINGTON_LON WELLINGTON_WIND WELLINGTON_PRES DS824_LAT DS824_LON DS824_STAGE DS824_WIND DS824_PRES TD9636_LAT TD9636_LON TD9636_STAGE TD9636_WIND TD9636_PRES TD9635_LAT TD9635_LON TD9635_WIND TD9635_PRES TD9635_ROCI NEUMANN_LAT NEUMANN_LON NEUMANN_CLASS NEUMANN_WIND NEUMANN_PRES MLC_LAT MLC_LON MLC_CLASS MLC_WIND MLC_PRES USA_GUST BOM_GUST BOM_GUST_PER REUNION_GUST REUNION_GUST_PER USA_SEAHGT USA_SEARAD_NE USA_SEARAD_SE USA_SEARAD_SW USA_SEARAD_NW STORM_SPEED STORM_DIR
1928192N12135 1928 33 WP MM NOT_NAMED 1928-07-09 22:00:00 NR 11.7000 134.700 main 971 953 __________O___ -1 11.7000 134.700 4 8 309
1928192N12135 1928 33 WP MM NOT_NAMED 1928-07-10 00:00:00 NR 11.8648 134.489 main 954 923 __________P___ -1 11.8648 134.489 4 8 308
1928192N12135 1928 33 WP MM NOT_NAMED 1928-07-10 03:00:00 NR 12.1125 134.170 main 923 885 __________P___ -1 12.1125 134.170 4 8 308
1928192N12135 1928 33 WP MM NOT_NAMED 1928-07-10 06:00:00 NR 12.3621 133.846 main 885 857 __________P___ -1 12.3621 133.846 4 8 308
1928192N12135 1928 33 WP MM NOT_NAMED 1928-07-10 09:00:00 NR 12.6148 133.513 main 857 849 __________P___ -1 12.6148 133.513 4 8 308
1928192N12135 1928 33 WP MM NOT_NAMED 1928-07-10 10:00:00 NR 12.7000 133.400 main 849 830 __________O___ -1 12.7000 133.400 4 8 307
1928192N12135 1928 33 WP MM NOT_NAMED 1928-07-10 12:00:00 NR 12.8717 133.169 main 833 797 __________P___ -1 12.8717 133.169 4 9 306
1928192N12135 1928 33 WP MM NOT_NAMED 1928-07-10 15:00:00 NR 13.1293 132.803 main 797 760 __________P___ -1 13.1293 132.803 4 9 304
1928192N12135 1928 33 WP MM NOT_NAMED 1928-07-10 18:00:00 NR 13.3819 132.405 main 760 722 __________P___ -1 13.3819 132.405 4 10 301
1928192N12135 1928 33 WP MM NOT_NAMED 1928-07-10 21:00:00 NR 13.6231 131.960 main 722 703 __________P___ -1 13.6231 131.960 4 10 298
1928192N12135 1928 33 WP MM NOT_NAMED 1928-07-10 22:00:00 NR 13.7000 131.800 main 703 674 __________O___ -1 13.7000 131.800 4 11 295
1928192N12135 1928 33 WP MM NOT_NAMED 1928-07-11 00:00:00 NR 13.8500 131.459 main 677 622 __________P___ -1 13.8500 131.459 4 11 293
1928192N12135 1928 33 WP MM NOT_NAMED 1928-07-11 03:00:00 NR 14.0625 130.904 main 622 566 __________P___ -1 14.0625 130.904 4 12 290
1928192N12135 1928 33 WP MM NOT_NAMED 1928-07-11 06:00:00 NR 14.2600 130.312 main 570 517 __________P___ -1 14.2600 130.312 4 12 288
1928192N12135 1928 33 WP MM NOT_NAMED 1928-07-11 09:00:00 NR 14.4424 129.704 main 517 503 __________P___ -1 14.4424 129.704 4 12 287
1928192N12135 1928 33 WP MM NOT_NAMED 1928-07-11 10:00:00 NR 14.5000 129.500 main 503 473 __________O___ -1 14.5000 129.500 4 12 286
1928192N12135 1928 33 WP MM NOT_NAMED 1928-07-11 12:00:00 NR 14.6002 129.129 main 473 436 __________P___ -1 14.6002 129.129 4 11 285
1928192N12135 1928 33 WP MM NOT_NAMED 1928-07-11 15:00:00 NR 14.7379 128.566 main 436 403 __________P___ -1 14.7379 128.566 4 12 284
1928192N12135 1928 33 WP MM NOT_NAMED 1928-07-11 18:00:00 NR 14.8777 127.975 main 403 335 __________P___ -1 14.8777 127.975 4 12 284
1928192N12135 1928 33 WP MM NOT_NAMED 1928-07-11 21:00:00 NR 15.0385 127.331 main 335 320 __________P___ -1 15.0385 127.331 4 13 285
1928192N12135 1928 33 WP MM NOT_NAMED 1928-07-11 22:00:00 NR 15.1000 127.100 main 320 278 __________O___ -1 15.1000 127.100 4 15 285
1928192N12135 1928 33 WP MM NOT_NAMED 1928-07-12 00:00:00 NR 15.2340 126.580 main 278 224 __________P___ -1 15.2340 126.580 4 16 285
1928192N12135 1928 33 WP MM NOT_NAMED 1928-07-12 03:00:00 NR 15.4597 125.744 main 225 198 __________P___ -1 15.4597 125.744 4 17 286
1928192N12135 1928 33 WP MM NOT_NAMED 1928-07-12 06:00:00 NR 15.7145 124.886 main 200 197 __________P___ -1 15.7145 124.886 4 17 288
1928192N12135 1928 33 WP MM NOT_NAMED 1928-07-12 09:00:00 NR 15.9987 124.059 main 198 165 __________P___ -1 15.9987 124.059 4 17 290
1928192N12135 1928 33 WP MM NOT_NAMED 1928-07-12 10:00:00 NR 16.1000 123.800 main 165 108 __________O___ -1 16.1000 123.800 4 16 295
1928192N12135 1928 33 WP MM NOT_NAMED 1928-07-12 12:00:00 NR 16.3310 123.304 main 108 24 __________P___ -1 16.3310 123.304 4 16 298
1928192N12135 1928 33 WP MM NOT_NAMED 1928-07-12 15:00:00 NR 16.7037 122.610 main 24 0 __________P___ -1 16.7037 122.610 4 15 301
1928192N12135 1928 33 WP MM NOT_NAMED 1928-07-12 18:00:00 NR 17.0744 121.988 main 0 0 __________P___ -1 17.0744 121.988 4 13 302
1928192N12135 1928 33 WP MM NOT_NAMED 1928-07-12 21:00:00 NR 17.4052 121.455 main 0 0 __________P___ -1 17.4052 121.455 4 12 303
1928192N12135 1928 33 WP MM NOT_NAMED 1928-07-12 22:00:00 NR 17.5000 121.300 main 0 0 __________O___ -1 17.5000 121.300 4 9 299
1928192N12135 1928 33 WP MM NOT_NAMED 1928-07-13 00:00:00 NR 17.6369 121.022 main 0 0 __________P___ -1 17.6369 121.022 4 8 297
1928192N12135 1928 33 WP MM NOT_NAMED 1928-07-13 03:00:00 NR 17.7925 120.688 main 0 0 __________P___ -1 17.7925 120.688 4 6 296
1928192N12135 1928 33 WP MM NOT_NAMED 1928-07-13 06:00:00 NR 17.9187 120.420 main 10 10 __________P___ -1 17.9187 120.420 4 5 298
1928192N12135 1928 33 WP MM NOT_NAMED 1928-07-13 09:00:00 NR 18.0495 120.180 main 31 31 __________P___ -1 18.0495 120.180 4 5 301
1928192N12135 1928 33 WP MM NOT_NAMED 1928-07-13 10:00:00 NR 18.1000 120.100 main 42 42 __________O___ -1 18.1000 120.100 4 6 308
1928192N12135 1928 33 WP MM NOT_NAMED 1928-07-13 12:00:00 NR 18.2244 119.944 main 64 64 __________P___ -1 18.2244 119.944 4 6 312
1928192N12135 1928 33 WP MM NOT_NAMED 1928-07-13 15:00:00 NR 18.4300 119.718 main 90 90 __________P___ -1 18.4300 119.718 4 6 314
1928192N12135 1928 33 WP MM NOT_NAMED 1928-07-13 18:00:00 NR 18.6587 119.463 main 120 130 __________P___ -1 18.6587 119.463 4 7 311
1928192N12135 1928 33 WP MM NOT_NAMED 1928-07-13 21:00:00 NR 18.9108 119.134 main 167 167 __________P___ -1 18.9108 119.134 4 8 308
1928192N12135 1928 33 WP MM NOT_NAMED 1928-07-13 22:00:00 NR 19.0000 119.000 main 181 181 __________O___ -1 19.0000 119.000 4 10 305
1928192N12135 1928 33 WP MM NOT_NAMED 1928-07-14 00:00:00 NR 19.2067 118.683 main 219 219 __________P___ -1 19.2067 118.683 4 12 303
1928192N12135 1928 33 WP MM NOT_NAMED 1928-07-14 03:00:00 NR 19.5360 118.125 main 290 295 __________P___ -1 19.5360 118.125 4 13 300
1928192N12135 1928 33 WP MM NOT_NAMED 1928-07-14 06:00:00 NR 19.8550 117.496 main 351 308 __________P___ -1 19.8550 117.496 4 14 296
1928192N12135 1928 33 WP MM NOT_NAMED 1928-07-14 09:00:00 NR 20.1264 116.826 main 308 291 __________P___ -1 20.1264 116.826 4 14 292
1928192N12135 1928 33 WP MM NOT_NAMED 1928-07-14 10:00:00 NR 20.2000 116.600 main 291 270 __________O___ -1 20.2000 116.600 4 14 285
1928192N12135 1928 33 WP MM NOT_NAMED 1928-07-14 12:00:00 NR 20.3074 116.119 main 270 240 __________P___ -1 20.3074 116.119 4 14 280
1928192N12135 1928 33 WP MM NOT_NAMED 1928-07-14 15:00:00 NR 20.4117 115.379 main 240 205 __________P___ -1 20.4117 115.379 4 14 277
1928192N12135 1928 33 WP MM NOT_NAMED 1928-07-14 18:00:00 NR 20.4663 114.673 main 205 193 __________P___ -1 20.4663 114.673 4 12 274
1928192N12135 1928 33 WP MM NOT_NAMED 1928-07-14 21:00:00 NR 20.4932 114.068 main 193 182 __________P___ -1 20.4932 114.068 4 11 273
1928192N12135 1928 33 WP MM NOT_NAMED 1928-07-14 22:00:00 NR 20.5000 113.900 main 182 168 __________O___ -1 20.5000 113.900 4 8 275
1928192N12135 1928 33 WP MM NOT_NAMED 1928-07-15 00:00:00 NR 20.5294 113.650 main 168 151 __________P___ -1 20.5294 113.650 4 6 277
1928192N12135 1928 33 WP MM NOT_NAMED 1928-07-15 03:00:00 NR 20.5622 113.388 main 151 146 __________P___ -1 20.5622 113.388 4 4 278
1928192N12135 1928 33 WP MM NOT_NAMED 1928-07-15 06:00:00 NR 20.5839 113.210 main 146 143 __________P___ -1 20.5839 113.210 4 3 276
1928192N12135 1928 33 WP MM NOT_NAMED 1928-07-15 09:00:00 NR 20.5971 113.056 main 143 140 __________P___ -1 20.5971 113.056 4 3 275
1928192N12135 1928 33 WP MM NOT_NAMED 1928-07-15 10:00:00 NR 20.6000 113.000 main 140 137 __________O___ -1 20.6000 113.000 4 3 271
1928192N12135 1928 33 WP MM NOT_NAMED 1928-07-15 12:00:00 NR 20.5992 112.904 main 137 133 __________P___ -1 20.5992 112.904 4 3 268
1928192N12135 1928 33 WP MM NOT_NAMED 1928-07-15 15:00:00 NR 20.5919 112.756 main 133 124 __________P___ -1 20.5919 112.756 4 3 268
1928192N12135 1928 33 WP MM NOT_NAMED 1928-07-15 18:00:00 NR 20.5865 112.536 main 124 118 __________P___ -1 20.5865 112.536 4 6 270
1928192N12135 1928 33 WP MM NOT_NAMED 1928-07-15 21:00:00 NR 20.5934 112.168 main 118 108 __________P___ -1 20.5934 112.168 4 8 272
1928192N12135 1928 33 WP MM NOT_NAMED 1928-07-15 22:00:00 NR 20.6000 112.000 main 108 94 __________O___ -1 20.6000 112.000 4 11 273
1928192N12135 1928 33 WP MM NOT_NAMED 1928-07-16 00:00:00 NR 20.6233 111.557 main 94 30 __________P___ -1 20.6233 111.557 4 14 273
1928192N12135 1928 33 WP MM NOT_NAMED 1928-07-16 03:00:00 NR 20.6701 110.734 main 30 0 __________P___ -1 20.6701 110.734 4 17 274
1928192N12135 1928 33 WP MM NOT_NAMED 1928-07-16 06:00:00 NR 20.7247 109.794 main 0 10 __________P___ -1 20.7247 109.794 4 18 274
1928192N12135 1928 33 WP MM NOT_NAMED 1928-07-16 09:00:00 NR 20.7814 108.819 main 78 78 __________P___ -1 20.7814 108.819 4 18 274
1928192N12135 1928 33 WP MM NOT_NAMED 1928-07-16 10:00:00 NR 20.8000 108.500 main 84 56 __________O___ -1 20.8000 108.500 4 18 274
1928192N12135 1928 33 WP MM NOT_NAMED 1928-07-16 12:00:00 NR 20.8363 107.884 main 56 0 __________P___ -1 20.8363 107.884 4 17 274
1928192N12135 1928 33 WP MM NOT_NAMED 1928-07-16 15:00:00 NR 20.8886 107.010 main 10 0 __________P___ -1 20.8886 107.010 4 16 274
1928192N12135 1928 33 WP MM NOT_NAMED 1928-07-16 18:00:00 NR 20.9383 106.177 main 0 0 __________P___ -1 20.9383 106.177 4 15 274
1928192N12135 1928 33 WP MM NOT_NAMED 1928-07-16 21:00:00 NR 20.9851 105.368 main 0 0 __________P___ -1 20.9851 105.368 4 15 274
1928192N12135 1928 33 WP MM NOT_NAMED 1928-07-16 22:00:00 NR 21.0000 105.100 main 0 __________O___ -1 21.0000 105.100 7 15 273

デジタル台風データ・検索

IBTrACS Databaseについて

本データベースは、米国NOAAが公開する1842年以降の世界の熱帯低気圧のベストトラックデータアーカイブInternational Best Track Archive for Climate Stewardship (IBTrACS)を、ウェブで閲覧しやすい形式に変換したものです。

最終更新日:2021-11-26